• Join FlightAware (Why Join?)
  • Login
  • US Flag 
04:42AM EDT


 

Airport Tracker/Info


-or-


 

Live Flight TrackerFlight Track Log ✈ CTL61 ✈ 19-Jul-2013 ✈ KCRW - KOSU

Flight Track Log - Related Links

Times and Time Zones

All times are in EDT time to prevent confusion due to time zone crossing. See the CTL61 flight status page for this flight to view local times or setup timezone preferences in your user account.

Time Position Orientation Groundspeed Altitude Reporting Facility
EDT Latitude Longitude Course Direction KTS MPH feet Rate Location/Type
11:46PM 38.4375 -81.6722 329° Northwest 127 146 3,900  Level Indianapolis Center
11:47PM 38.4686 -81.6972 328° Northwest 130 150 4,500 660 Climbing Indianapolis Center
11:48PM 38.4986 -81.7222 327° Northwest 130 150 5,300 660 Climbing Indianapolis Center
11:49PM 38.5786 -81.7638 327° Northwest  Level FlightAware Approximate
11:49PM 38.5286 -81.7481 326° Northwest 128 147 5,900  Level Indianapolis Center
11:50PM 38.6141 -81.7938 327° Northwest  Level FlightAware Approximate
11:50PM 38.5628 -81.7767 327° Northwest 144 166 6,100  Level Indianapolis Center
11:51PM 38.6072 -81.8150 326° Northwest 159 183 5,900 -120 Descending Indianapolis Center
11:52PM 38.6453 -81.8472 327° Northwest 163 188 5,900  Level Indianapolis Center
11:53PM 38.6844 -81.8783 328° Northwest 164 189 6,000  Climbing Indianapolis Center
11:54PM 38.7231 -81.9094 328° Northwest 163 188 6,000  Level Indianapolis Center
11:55PM 38.7628 -81.9383 330° Northwest 164 189 6,000  Level Indianapolis Center
11:56PM 38.8033 -81.9661 332° Northwest 164 189 6,000  Level Indianapolis Center
11:57PM 38.8436 -81.9936 332° Northwest 164 189 6,000  Level Indianapolis Center
11:58PM 38.8822 -82.0250 328° Northwest 164 189 6,000  Level Indianapolis Center
11:59PM 38.9181 -82.0608 322° Northwest 163 188 6,000 -60 Level Indianapolis Center
12:00AM 38.9547 -82.0933 325° Northwest 161 185 5,900 -60 Descending Indianapolis Center
12:01AM 38.9928 -82.1256 327° Northwest 163 188 5,900  Level Indianapolis Center
12:02AM 39.0308 -82.1556 329° Northwest 162 186 5,900  Level Indianapolis Center
12:03AM 39.0686 -82.1900 325° Northwest 166 191 5,900  Level Indianapolis Center
12:04AM 39.1050 -82.2217 326° Northwest 158 182 6,000 60 Climbing Indianapolis Center
12:05AM 39.1428 -82.2531 327° Northwest 161 185 6,100  Climbing Indianapolis Center
12:06AM 39.1797 -82.2856 326° Northwest 160 184 6,000 -120 Descending Indianapolis Center
12:07AM 39.2175 -82.3167 327° Northwest 162 186 5,900  Descending Indianapolis Center
12:08AM 39.2544 -82.3500 325° Northwest 161 185 6,000  Climbing Indianapolis Center
12:09AM 39.2969 -82.3847 328° Northwest 159 183 6,000  Level Indianapolis Center
12:10AM 39.3300 -82.4142 325° Northwest 156 180 6,000  Level Indianapolis Center
12:11AM 39.3669 -82.4467 326° Northwest 157 181 6,000  Level Indianapolis Center
12:12AM 39.4036 -82.4794 325° Northwest 162 186 6,100 -60 Climbing Indianapolis Center
12:13AM 39.4406 -82.5122 326° Northwest 163 188 5,900  Descending Indianapolis Center
12:14AM 39.4844 -82.5489 327° Northwest 164 189 6,100  Climbing Indianapolis Center
12:15AM 39.5125 -82.5747 325° Northwest 159 183 6,000 -60 Descending Indianapolis Center
12:16AM 39.5497 -82.6047 328° Northwest 161 185 6,000 -60 Level Indianapolis Center
12:17AM 39.5867 -82.6375 326° Northwest 161 185 5,900  Descending Indianapolis Center
12:18AM 39.6292 -82.6767 325° Northwest 160 184 6,000  Climbing Indianapolis Center
12:19AM 39.6661 -82.7069 328° Northwest 160 184 6,000  Level Indianapolis Center
12:20AM 39.7031 -82.7400 325° Northwest 161 185 6,000  Level Indianapolis Center
12:21AM 39.7422 -82.7706 329° Northwest 162 186 6,000  Level Indianapolis Center
12:22AM 39.7769 -82.8033 324° Northwest 157 181 6,000 -420 Level Indianapolis Center
12:23AM 39.8228 -82.8453 325° Northwest 173 199 5,200 -720 Descending Indianapolis Center
12:24AM 39.8622 -82.8794 326° Northwest 187 215 4,600 -720 Descending Indianapolis Center
12:25AM 39.9028 -82.9158 325° Northwest 179 206 3,900 -300 Descending Indianapolis Center
12:26AM 39.9436 -82.9497 328° Northwest 151 174 4,000  Climbing Indianapolis Center
12:27AM 39.9744 -82.9575 349° North 151 174 4,000 -120 Level Indianapolis Center
12:28AM 40.0189 -82.9536 North 152 175 3,800 -240 Descending Indianapolis Center
12:30AM 40.0379 -83.0125 293° West  Level FlightAware Approximate
12:37AM 40.0667 -83.0667 323° Northwest  Level FlightAware Approximate
12:38AM 40.0798 -83.0732 323° Northwest  Level Estimated
12:39AM 40.0798 -83.0732 323° Northwest  Level Estimated